sensor_id;sensor_type;location;lat;lon;timestamp;P1;durP1;ratioP1;P2;durP2;ratioP2
52106;SDS011;38105;52.968;5.974;2022-09-09T00:00:40;17.00;;;10.63;;
52106;SDS011;38105;52.968;5.974;2022-09-09T00:05:48;16.98;;;11.15;;
52106;SDS011;38105;52.968;5.974;2022-09-09T00:08:44;20.42;;;10.52;;
52106;SDS011;38105;52.968;5.974;2022-09-09T00:11:16;17.98;;;10.32;;
52106;SDS011;38105;52.968;5.974;2022-09-09T00:13:48;15.93;;;10.30;;
52106;SDS011;38105;52.968;5.974;2022-09-09T00:16:25;19.27;;;10.60;;
52106;SDS011;38105;52.968;5.974;2022-09-09T00:21:43;19.48;;;10.32;;
52106;SDS011;38105;52.968;5.974;2022-09-09T00:27:16;18.50;;;10.63;;
52106;SDS011;38105;52.968;5.974;2022-09-09T00:32:19;18.13;;;9.65;;
52106;SDS011;38105;52.968;5.974;2022-09-09T00:34:48;13.63;;;9.23;;
52106;SDS011;38105;52.968;5.974;2022-09-09T00:37:18;14.23;;;9.15;;
52106;SDS011;38105;52.968;5.974;2022-09-09T00:39:45;13.68;;;9.38;;
52106;SDS011;38105;52.968;5.974;2022-09-09T00:44:51;14.90;;;8.98;;
52106;SDS011;38105;52.968;5.974;2022-09-09T00:50:03;14.55;;;9.75;;
52106;SDS011;38105;52.968;5.974;2022-09-09T00:55:45;12.05;;;8.98;;
52106;SDS011;38105;52.968;5.974;2022-09-09T00:58:18;11.90;;;7.93;;
52106;SDS011;38105;52.968;5.974;2022-09-09T01:00:45;15.40;;;8.75;;
52106;SDS011;38105;52.968;5.974;2022-09-09T01:11:10;15.35;;;9.30;;
52106;SDS011;38105;52.968;5.974;2022-09-09T01:13:45;14.95;;;9.27;;
52106;SDS011;38105;52.968;5.974;2022-09-09T01:16:14;13.30;;;9.48;;
52106;SDS011;38105;52.968;5.974;2022-09-09T01:18:46;13.25;;;9.85;;
52106;SDS011;38105;52.968;5.974;2022-09-09T01:24:03;12.25;;;8.68;;
52106;SDS011;38105;52.968;5.974;2022-09-09T01:26:48;15.55;;;9.68;;
52106;SDS011;38105;52.968;5.974;2022-09-09T01:31:57;11.40;;;8.65;;
52106;SDS011;38105;52.968;5.974;2022-09-09T01:34:29;14.65;;;9.77;;
52106;SDS011;38105;52.968;5.974;2022-09-09T01:37:05;10.45;;;9.43;;
52106;SDS011;38105;52.968;5.974;2022-09-09T01:39:33;15.45;;;9.48;;
52106;SDS011;38105;52.968;5.974;2022-09-09T01:42:01;15.82;;;9.75;;
52106;SDS011;38105;52.968;5.974;2022-09-09T01:44:28;11.45;;;9.30;;
52106;SDS011;38105;52.968;5.974;2022-09-09T01:46:55;13.30;;;9.73;;
52106;SDS011;38105;52.968;5.974;2022-09-09T01:49:21;14.32;;;10.07;;
52106;SDS011;38105;52.968;5.974;2022-09-09T01:51:49;17.83;;;10.93;;
52106;SDS011;38105;52.968;5.974;2022-09-09T01:54:17;17.20;;;10.65;;
52106;SDS011;38105;52.968;5.974;2022-09-09T01:56:50;12.23;;;9.25;;
52106;SDS011;38105;52.968;5.974;2022-09-09T01:59:40;14.32;;;10.25;;
52106;SDS011;38105;52.968;5.974;2022-09-09T02:04:44;14.73;;;10.27;;
52106;SDS011;38105;52.968;5.974;2022-09-09T02:13:00;11.73;;;9.10;;
52106;SDS011;38105;52.968;5.974;2022-09-09T02:17:59;12.07;;;8.70;;
52106;SDS011;38105;52.968;5.974;2022-09-09T02:20:29;15.05;;;10.38;;
52106;SDS011;38105;52.968;5.974;2022-09-09T02:22:58;13.55;;;10.25;;
52106;SDS011;38105;52.968;5.974;2022-09-09T02:25:26;14.20;;;10.45;;
52106;SDS011;38105;52.968;5.974;2022-09-09T02:27:54;15.57;;;10.55;;
52106;SDS011;38105;52.968;5.974;2022-09-09T02:30:23;17.27;;;10.82;;
52106;SDS011;38105;52.968;5.974;2022-09-09T02:32:50;13.50;;;9.63;;
52106;SDS011;38105;52.968;5.974;2022-09-09T02:35:22;17.00;;;10.98;;
52106;SDS011;38105;52.968;5.974;2022-09-09T02:37:50;15.27;;;11.43;;
52106;SDS011;38105;52.968;5.974;2022-09-09T02:40:17;14.85;;;10.80;;
52106;SDS011;38105;52.968;5.974;2022-09-09T02:42:45;13.48;;;10.90;;
52106;SDS011;38105;52.968;5.974;2022-09-09T02:45:12;13.38;;;11.35;;
52106;SDS011;38105;52.968;5.974;2022-09-09T02:48:25;15.00;;;10.75;;
52106;SDS011;38105;52.968;5.974;2022-09-09T02:50:33;15.55;;;11.48;;
52106;SDS011;38105;52.968;5.974;2022-09-09T02:58:30;17.60;;;11.35;;
52106;SDS011;38105;52.968;5.974;2022-09-09T03:00:56;14.45;;;10.70;;
52106;SDS011;38105;52.968;5.974;2022-09-09T03:03:27;15.68;;;11.68;;
52106;SDS011;38105;52.968;5.974;2022-09-09T03:05:54;15.07;;;11.10;;
52106;SDS011;38105;52.968;5.974;2022-09-09T03:08:19;15.63;;;11.55;;
52106;SDS011;38105;52.968;5.974;2022-09-09T03:10:45;11.95;;;9.65;;
52106;SDS011;38105;52.968;5.974;2022-09-09T03:13:11;17.27;;;10.02;;
52106;SDS011;38105;52.968;5.974;2022-09-09T03:15:38;16.20;;;9.27;;
52106;SDS011;38105;52.968;5.974;2022-09-09T03:18:03;17.52;;;9.07;;
52106;SDS011;38105;52.968;5.974;2022-09-09T03:20:29;12.77;;;8.52;;
52106;SDS011;38105;52.968;5.974;2022-09-09T03:22:56;12.40;;;8.77;;
52106;SDS011;38105;52.968;5.974;2022-09-09T03:25:22;15.23;;;9.10;;
52106;SDS011;38105;52.968;5.974;2022-09-09T03:27:52;13.43;;;8.20;;
52106;SDS011;38105;52.968;5.974;2022-09-09T03:30:26;10.85;;;7.50;;
52106;SDS011;38105;52.968;5.974;2022-09-09T03:35:18;12.93;;;7.47;;
52106;SDS011;38105;52.968;5.974;2022-09-09T03:37:44;11.82;;;7.35;;
52106;SDS011;38105;52.968;5.974;2022-09-09T03:40:10;10.55;;;7.43;;
52106;SDS011;38105;52.968;5.974;2022-09-09T03:42:37;11.20;;;7.30;;
52106;SDS011;38105;52.968;5.974;2022-09-09T03:45:07;13.00;;;6.28;;
52106;SDS011;38105;52.968;5.974;2022-09-09T03:47:34;11.63;;;7.03;;
52106;SDS011;38105;52.968;5.974;2022-09-09T03:50:00;13.07;;;5.63;;
52106;SDS011;38105;52.968;5.974;2022-09-09T03:52:26;10.10;;;5.93;;
52106;SDS011;38105;52.968;5.974;2022-09-09T03:54:52;14.93;;;6.28;;
52106;SDS011;38105;52.968;5.974;2022-09-09T03:57:19;10.77;;;7.05;;
52106;SDS011;38105;52.968;5.974;2022-09-09T03:59:45;13.25;;;6.63;;
52106;SDS011;38105;52.968;5.974;2022-09-09T04:02:11;11.98;;;6.88;;
52106;SDS011;38105;52.968;5.974;2022-09-09T04:04:36;15.45;;;7.00;;
52106;SDS011;38105;52.968;5.974;2022-09-09T04:07:02;12.02;;;8.07;;
52106;SDS011;38105;52.968;5.974;2022-09-09T04:09:31;13.18;;;8.32;;
52106;SDS011;38105;52.968;5.974;2022-09-09T04:11:56;15.25;;;10.05;;
52106;SDS011;38105;52.968;5.974;2022-09-09T04:14:22;17.73;;;11.00;;
52106;SDS011;38105;52.968;5.974;2022-09-09T04:16:47;15.07;;;11.13;;
52106;SDS011;38105;52.968;5.974;2022-09-09T04:19:13;18.50;;;10.77;;
52106;SDS011;38105;52.968;5.974;2022-09-09T04:21:39;19.67;;;10.85;;
52106;SDS011;38105;52.968;5.974;2022-09-09T04:24:06;17.88;;;10.82;;
52106;SDS011;38105;52.968;5.974;2022-09-09T04:26:33;21.65;;;11.40;;
52106;SDS011;38105;52.968;5.974;2022-09-09T04:28:59;15.70;;;10.18;;
52106;SDS011;38105;52.968;5.974;2022-09-09T04:31:25;16.05;;;9.80;;
52106;SDS011;38105;52.968;5.974;2022-09-09T04:33:51;16.10;;;10.77;;
52106;SDS011;38105;52.968;5.974;2022-09-09T04:36:17;17.60;;;10.32;;
52106;SDS011;38105;52.968;5.974;2022-09-09T04:38:44;18.83;;;10.15;;
52106;SDS011;38105;52.968;5.974;2022-09-09T04:41:11;16.70;;;10.57;;
52106;SDS011;38105;52.968;5.974;2022-09-09T04:43:38;16.98;;;10.73;;
52106;SDS011;38105;52.968;5.974;2022-09-09T04:46:04;14.07;;;10.10;;
52106;SDS011;38105;52.968;5.974;2022-09-09T04:48:31;17.77;;;10.25;;
52106;SDS011;38105;52.968;5.974;2022-09-09T04:50:57;16.73;;;10.93;;
52106;SDS011;38105;52.968;5.974;2022-09-09T04:53:23;19.75;;;11.70;;
52106;SDS011;38105;52.968;5.974;2022-09-09T04:55:50;15.80;;;12.15;;
52106;SDS011;38105;52.968;5.974;2022-09-09T04:58:17;15.65;;;11.90;;
52106;SDS011;38105;52.968;5.974;2022-09-09T05:00:43;21.85;;;14.15;;
52106;SDS011;38105;52.968;5.974;2022-09-09T05:03:09;17.27;;;13.27;;
52106;SDS011;38105;52.968;5.974;2022-09-09T05:05:34;17.38;;;13.57;;
52106;SDS011;38105;52.968;5.974;2022-09-09T05:08:03;21.08;;;15.05;;
52106;SDS011;38105;52.968;5.974;2022-09-09T05:10:31;23.85;;;15.82;;
52106;SDS011;38105;52.968;5.974;2022-09-09T05:12:57;20.52;;;15.35;;
52106;SDS011;38105;52.968;5.974;2022-09-09T05:15:23;22.65;;;15.25;;
52106;SDS011;38105;52.968;5.974;2022-09-09T05:17:49;24.13;;;16.38;;
52106;SDS011;38105;52.968;5.974;2022-09-09T05:20:16;25.25;;;17.25;;
52106;SDS011;38105;52.968;5.974;2022-09-09T05:22:41;27.70;;;16.88;;
52106;SDS011;38105;52.968;5.974;2022-09-09T05:25:07;27.70;;;17.15;;
52106;SDS011;38105;52.968;5.974;2022-09-09T05:27:36;25.48;;;15.75;;
52106;SDS011;38105;52.968;5.974;2022-09-09T05:30:02;26.23;;;17.30;;
52106;SDS011;38105;52.968;5.974;2022-09-09T05:32:30;23.65;;;16.55;;
52106;SDS011;38105;52.968;5.974;2022-09-09T05:34:59;23.42;;;15.63;;
52106;SDS011;38105;52.968;5.974;2022-09-09T05:37:24;21.35;;;15.65;;
52106;SDS011;38105;52.968;5.974;2022-09-09T05:39:50;25.05;;;16.95;;
52106;SDS011;38105;52.968;5.974;2022-09-09T05:42:16;21.52;;;15.77;;
52106;SDS011;38105;52.968;5.974;2022-09-09T05:44:42;22.35;;;15.75;;
52106;SDS011;38105;52.968;5.974;2022-09-09T05:47:08;23.17;;;15.45;;
52106;SDS011;38105;52.968;5.974;2022-09-09T05:49:34;21.90;;;16.10;;
52106;SDS011;38105;52.968;5.974;2022-09-09T05:52:00;20.73;;;14.75;;
52106;SDS011;38105;52.968;5.974;2022-09-09T05:54:25;20.75;;;14.90;;
52106;SDS011;38105;52.968;5.974;2022-09-09T05:56:51;22.95;;;15.13;;
52106;SDS011;38105;52.968;5.974;2022-09-09T05:59:18;19.85;;;15.00;;
52106;SDS011;38105;52.968;5.974;2022-09-09T06:01:44;25.15;;;14.57;;
52106;SDS011;38105;52.968;5.974;2022-09-09T06:04:13;18.67;;;14.02;;
52106;SDS011;38105;52.968;5.974;2022-09-09T06:06:38;22.20;;;14.77;;
52106;SDS011;38105;52.968;5.974;2022-09-09T06:09:05;20.50;;;14.43;;
52106;SDS011;38105;52.968;5.974;2022-09-09T06:11:35;19.90;;;14.60;;
52106;SDS011;38105;52.968;5.974;2022-09-09T06:14:03;25.25;;;15.85;;
52106;SDS011;38105;52.968;5.974;2022-09-09T06:16:29;24.35;;;15.02;;
52106;SDS011;38105;52.968;5.974;2022-09-09T06:18:57;20.02;;;14.23;;
52106;SDS011;38105;52.968;5.974;2022-09-09T06:21:27;21.73;;;14.70;;
52106;SDS011;38105;52.968;5.974;2022-09-09T06:23:55;22.95;;;15.50;;
52106;SDS011;38105;52.968;5.974;2022-09-09T06:26:22;19.13;;;14.68;;
52106;SDS011;38105;52.968;5.974;2022-09-09T06:28:50;20.30;;;14.20;;
52106;SDS011;38105;52.968;5.974;2022-09-09T06:31:18;21.65;;;14.40;;
52106;SDS011;38105;52.968;5.974;2022-09-09T06:33:51;20.52;;;14.55;;
52106;SDS011;38105;52.968;5.974;2022-09-09T06:36:19;18.85;;;13.40;;
52106;SDS011;38105;52.968;5.974;2022-09-09T06:38:46;21.73;;;14.30;;
52106;SDS011;38105;52.968;5.974;2022-09-09T06:41:13;16.05;;;12.68;;
52106;SDS011;38105;52.968;5.974;2022-09-09T06:43:40;17.80;;;12.50;;
52106;SDS011;38105;52.968;5.974;2022-09-09T06:46:13;19.30;;;12.30;;
52106;SDS011;38105;52.968;5.974;2022-09-09T06:48:42;17.80;;;12.27;;
52106;SDS011;38105;52.968;5.974;2022-09-09T06:51:13;15.02;;;10.88;;
52106;SDS011;38105;52.968;5.974;2022-09-09T06:53:41;14.45;;;11.55;;
52106;SDS011;38105;52.968;5.974;2022-09-09T06:58:40;13.02;;;9.82;;
52106;SDS011;38105;52.968;5.974;2022-09-09T07:01:12;16.00;;;10.65;;
52106;SDS011;38105;52.968;5.974;2022-09-09T07:03:40;11.15;;;9.27;;
52106;SDS011;38105;52.968;5.974;2022-09-09T07:06:08;15.27;;;10.30;;
52106;SDS011;38105;52.968;5.974;2022-09-09T07:08:39;13.75;;;9.93;;
52106;SDS011;38105;52.968;5.974;2022-09-09T07:11:06;11.95;;;9.43;;
52106;SDS011;38105;52.968;5.974;2022-09-09T07:13:33;10.93;;;8.98;;
52106;SDS011;38105;52.968;5.974;2022-09-09T07:16:07;11.57;;;9.60;;
52106;SDS011;38105;52.968;5.974;2022-09-09T07:18:34;12.40;;;9.02;;
52106;SDS011;38105;52.968;5.974;2022-09-09T07:21:01;12.63;;;9.70;;
52106;SDS011;38105;52.968;5.974;2022-09-09T07:23:28;13.10;;;9.30;;
52106;SDS011;38105;52.968;5.974;2022-09-09T07:25:54;13.57;;;9.25;;
52106;SDS011;38105;52.968;5.974;2022-09-09T07:28:21;10.93;;;8.75;;
52106;SDS011;38105;52.968;5.974;2022-09-09T07:30:57;10.35;;;8.82;;
52106;SDS011;38105;52.968;5.974;2022-09-09T07:33:28;13.10;;;9.23;;
52106;SDS011;38105;52.968;5.974;2022-09-09T07:36:17;10.23;;;8.32;;
52106;SDS011;38105;52.968;5.974;2022-09-09T07:38:48;10.90;;;7.28;;
52106;SDS011;38105;52.968;5.974;2022-09-09T07:41:32;9.48;;;7.38;;
52106;SDS011;38105;52.968;5.974;2022-09-09T07:44:03;11.43;;;6.53;;
52106;SDS011;38105;52.968;5.974;2022-09-09T07:46:30;9.55;;;6.47;;
52106;SDS011;38105;52.968;5.974;2022-09-09T07:48:56;8.57;;;5.47;;
52106;SDS011;38105;52.968;5.974;2022-09-09T07:51:25;8.65;;;4.95;;
52106;SDS011;38105;52.968;5.974;2022-09-09T07:53:59;8.43;;;5.13;;
52106;SDS011;38105;52.968;5.974;2022-09-09T07:56:28;11.77;;;4.93;;
52106;SDS011;38105;52.968;5.974;2022-09-09T07:58:55;9.82;;;4.75;;
52106;SDS011;38105;52.968;5.974;2022-09-09T08:01:23;9.63;;;4.65;;
52106;SDS011;38105;52.968;5.974;2022-09-09T08:04:00;8.63;;;4.22;;
52106;SDS011;38105;52.968;5.974;2022-09-09T08:06:28;6.30;;;3.95;;
52106;SDS011;38105;52.968;5.974;2022-09-09T08:08:57;7.50;;;4.25;;
52106;SDS011;38105;52.968;5.974;2022-09-09T08:11:24;7.57;;;3.90;;
52106;SDS011;38105;52.968;5.974;2022-09-09T08:13:51;11.43;;;3.63;;
52106;SDS011;38105;52.968;5.974;2022-09-09T08:16:18;7.22;;;2.80;;
52106;SDS011;38105;52.968;5.974;2022-09-09T08:18:49;10.85;;;3.20;;
52106;SDS011;38105;52.968;5.974;2022-09-09T08:21:26;8.88;;;3.33;;
52106;SDS011;38105;52.968;5.974;2022-09-09T08:23:55;7.93;;;2.83;;
52106;SDS011;38105;52.968;5.974;2022-09-09T08:26:26;9.32;;;2.83;;
52106;SDS011;38105;52.968;5.974;2022-09-09T08:28:57;7.22;;;2.67;;
52106;SDS011;38105;52.968;5.974;2022-09-09T08:31:24;9.40;;;2.72;;
52106;SDS011;38105;52.968;5.974;2022-09-09T08:33:53;10.88;;;3.10;;
52106;SDS011;38105;52.968;5.974;2022-09-09T08:36:20;8.63;;;3.17;;
52106;SDS011;38105;52.968;5.974;2022-09-09T08:38:48;9.93;;;3.13;;
52106;SDS011;38105;52.968;5.974;2022-09-09T08:43:46;9.15;;;3.05;;
52106;SDS011;38105;52.968;5.974;2022-09-09T08:46:21;10.27;;;3.65;;
52106;SDS011;38105;52.968;5.974;2022-09-09T08:48:56;7.80;;;2.97;;
52106;SDS011;38105;52.968;5.974;2022-09-09T08:53:55;14.75;;;3.55;;
52106;SDS011;38105;52.968;5.974;2022-09-09T08:56:25;8.05;;;3.08;;
52106;SDS011;38105;52.968;5.974;2022-09-09T08:58:53;7.95;;;2.55;;
52106;SDS011;38105;52.968;5.974;2022-09-09T09:04:00;9.60;;;2.80;;
52106;SDS011;38105;52.968;5.974;2022-09-09T09:09:14;9.30;;;2.83;;
52106;SDS011;38105;52.968;5.974;2022-09-09T09:11:53;14.25;;;2.50;;
52106;SDS011;38105;52.968;5.974;2022-09-09T09:14:30;8.40;;;2.50;;
52106;SDS011;38105;52.968;5.974;2022-09-09T09:19:39;8.10;;;2.33;;
52106;SDS011;38105;52.968;5.974;2022-09-09T09:29:56;10.55;;;2.80;;
52106;SDS011;38105;52.968;5.974;2022-09-09T09:32:23;12.35;;;2.72;;
52106;SDS011;38105;52.968;5.974;2022-09-09T09:34:51;10.57;;;2.28;;
52106;SDS011;38105;52.968;5.974;2022-09-09T09:37:30;8.73;;;2.78;;
52106;SDS011;38105;52.968;5.974;2022-09-09T09:40:11;12.73;;;2.78;;
52106;SDS011;38105;52.968;5.974;2022-09-09T09:45:23;7.47;;;2.63;;
52106;SDS011;38105;52.968;5.974;2022-09-09T09:47:58;9.43;;;2.50;;
52106;SDS011;38105;52.968;5.974;2022-09-09T09:50:28;13.07;;;2.35;;
52106;SDS011;38105;52.968;5.974;2022-09-09T09:53:00;6.10;;;1.67;;
52106;SDS011;38105;52.968;5.974;2022-09-09T09:55:30;10.63;;;1.92;;
52106;SDS011;38105;52.968;5.974;2022-09-09T09:58:02;7.47;;;1.55;;
52106;SDS011;38105;52.968;5.974;2022-09-09T10:00:32;10.57;;;1.80;;
52106;SDS011;38105;52.968;5.974;2022-09-09T10:03:01;7.63;;;1.70;;
52106;SDS011;38105;52.968;5.974;2022-09-09T10:05:37;8.60;;;2.00;;
52106;SDS011;38105;52.968;5.974;2022-09-09T10:08:12;9.70;;;2.05;;
52106;SDS011;38105;52.968;5.974;2022-09-09T10:19:15;10.40;;;2.53;;
52106;SDS011;38105;52.968;5.974;2022-09-09T10:21:59;9.63;;;1.95;;
52106;SDS011;38105;52.968;5.974;2022-09-09T10:30:19;8.73;;;1.95;;
52106;SDS011;38105;52.968;5.974;2022-09-09T10:35:42;9.68;;;1.98;;
52106;SDS011;38105;52.968;5.974;2022-09-09T10:38:17;9.82;;;1.83;;
52106;SDS011;38105;52.968;5.974;2022-09-09T10:46:21;9.50;;;1.40;;
52106;SDS011;38105;52.968;5.974;2022-09-09T10:51:59;9.75;;;2.05;;
52106;SDS011;38105;52.968;5.974;2022-09-09T10:57:31;12.07;;;2.35;;
52106;SDS011;38105;52.968;5.974;2022-09-09T11:00:03;9.27;;;2.00;;
52106;SDS011;38105;52.968;5.974;2022-09-09T11:02:40;8.93;;;1.60;;
52106;SDS011;38105;52.968;5.974;2022-09-09T11:07:42;7.85;;;1.83;;
52106;SDS011;38105;52.968;5.974;2022-09-09T11:10:48;10.73;;;1.83;;
52106;SDS011;38105;52.968;5.974;2022-09-09T11:16:22;6.68;;;1.27;;
52106;SDS011;38105;52.968;5.974;2022-09-09T11:19:01;10.27;;;1.77;;
52106;SDS011;38105;52.968;5.974;2022-09-09T11:21:49;7.13;;;1.60;;
52106;SDS011;38105;52.968;5.974;2022-09-09T11:24:31;8.93;;;1.75;;
52106;SDS011;38105;52.968;5.974;2022-09-09T11:27:13;5.63;;;1.42;;
52106;SDS011;38105;52.968;5.974;2022-09-09T11:32:40;7.97;;;1.38;;
52106;SDS011;38105;52.968;5.974;2022-09-09T11:35:44;7.40;;;1.50;;
52106;SDS011;38105;52.968;5.974;2022-09-09T11:40:58;10.43;;;1.60;;
52106;SDS011;38105;52.968;5.974;2022-09-09T11:43:28;4.90;;;1.23;;
52106;SDS011;38105;52.968;5.974;2022-09-09T11:45:58;10.50;;;1.92;;
52106;SDS011;38105;52.968;5.974;2022-09-09T11:48:40;9.85;;;1.50;;
52106;SDS011;38105;52.968;5.974;2022-09-09T11:53:52;10.77;;;2.17;;
52106;SDS011;38105;52.968;5.974;2022-09-09T11:56:28;9.50;;;1.70;;
52106;SDS011;38105;52.968;5.974;2022-09-09T11:59:03;9.68;;;1.65;;
52106;SDS011;38105;52.968;5.974;2022-09-09T12:01:37;8.80;;;1.90;;
52106;SDS011;38105;52.968;5.974;2022-09-09T12:09:29;9.45;;;1.40;;
52106;SDS011;38105;52.968;5.974;2022-09-09T12:12:07;7.88;;;1.25;;
52106;SDS011;38105;52.968;5.974;2022-09-09T12:17:23;10.75;;;1.73;;
52106;SDS011;38105;52.968;5.974;2022-09-09T12:20:00;7.35;;;1.70;;
52106;SDS011;38105;52.968;5.974;2022-09-09T12:25:21;8.30;;;1.70;;
52106;SDS011;38105;52.968;5.974;2022-09-09T12:30:35;8.82;;;2.03;;
52106;SDS011;38105;52.968;5.974;2022-09-09T12:33:16;6.15;;;1.38;;
52106;SDS011;38105;52.968;5.974;2022-09-09T12:35:44;11.48;;;1.67;;
52106;SDS011;38105;52.968;5.974;2022-09-09T12:38:17;8.23;;;1.52;;
52106;SDS011;38105;52.968;5.974;2022-09-09T12:40:55;6.65;;;1.58;;
52106;SDS011;38105;52.968;5.974;2022-09-09T12:43:22;7.22;;;1.50;;
52106;SDS011;38105;52.968;5.974;2022-09-09T12:45:50;11.52;;;1.92;;
52106;SDS011;38105;52.968;5.974;2022-09-09T12:48:22;8.60;;;1.30;;
52106;SDS011;38105;52.968;5.974;2022-09-09T12:50:57;8.55;;;1.60;;
52106;SDS011;38105;52.968;5.974;2022-09-09T12:53:25;11.80;;;1.90;;
52106;SDS011;38105;52.968;5.974;2022-09-09T12:58:29;6.05;;;1.15;;
52106;SDS011;38105;52.968;5.974;2022-09-09T13:01:00;7.03;;;1.48;;
52106;SDS011;38105;52.968;5.974;2022-09-09T13:03:30;10.05;;;1.67;;
52106;SDS011;38105;52.968;5.974;2022-09-09T13:05:58;5.78;;;1.30;;
52106;SDS011;38105;52.968;5.974;2022-09-09T13:08:36;9.82;;;1.95;;
52106;SDS011;38105;52.968;5.974;2022-09-09T13:11:03;8.20;;;1.50;;
52106;SDS011;38105;52.968;5.974;2022-09-09T13:16:05;9.70;;;2.42;;
52106;SDS011;38105;52.968;5.974;2022-09-09T13:18:43;9.43;;;2.42;;
52106;SDS011;38105;52.968;5.974;2022-09-09T13:21:08;9.15;;;2.13;;
52106;SDS011;38105;52.968;5.974;2022-09-09T13:23:35;8.63;;;1.95;;
52106;SDS011;38105;52.968;5.974;2022-09-09T13:26:06;9.48;;;2.35;;
52106;SDS011;38105;52.968;5.974;2022-09-09T13:28:46;7.45;;;1.65;;
52106;SDS011;38105;52.968;5.974;2022-09-09T13:34:14;5.10;;;1.17;;
52106;SDS011;38105;52.968;5.974;2022-09-09T13:37:04;6.13;;;1.15;;
52106;SDS011;38105;52.968;5.974;2022-09-09T13:39:34;7.40;;;1.40;;
52106;SDS011;38105;52.968;5.974;2022-09-09T13:42:02;5.35;;;1.70;;
52106;SDS011;38105;52.968;5.974;2022-09-09T13:44:30;4.97;;;1.20;;
52106;SDS011;38105;52.968;5.974;2022-09-09T13:47:06;4.78;;;0.82;;
52106;SDS011;38105;52.968;5.974;2022-09-09T13:49:44;4.95;;;0.95;;
52106;SDS011;38105;52.968;5.974;2022-09-09T13:52:15;7.22;;;1.60;;
52106;SDS011;38105;52.968;5.974;2022-09-09T13:54:43;7.28;;;1.10;;
52106;SDS011;38105;52.968;5.974;2022-09-09T13:57:19;5.53;;;0.88;;
52106;SDS011;38105;52.968;5.974;2022-09-09T13:59:46;5.05;;;1.17;;
52106;SDS011;38105;52.968;5.974;2022-09-09T14:02:13;5.50;;;1.10;;
52106;SDS011;38105;52.968;5.974;2022-09-09T14:04:40;4.15;;;0.90;;
52106;SDS011;38105;52.968;5.974;2022-09-09T14:07:09;3.97;;;1.00;;
52106;SDS011;38105;52.968;5.974;2022-09-09T14:09:38;5.30;;;1.23;;
52106;SDS011;38105;52.968;5.974;2022-09-09T14:12:04;4.75;;;0.88;;
52106;SDS011;38105;52.968;5.974;2022-09-09T14:14:30;5.20;;;1.30;;
52106;SDS011;38105;52.968;5.974;2022-09-09T14:16:56;5.20;;;1.05;;
52106;SDS011;38105;52.968;5.974;2022-09-09T14:19:21;6.75;;;1.38;;
52106;SDS011;38105;52.968;5.974;2022-09-09T14:21:47;4.78;;;1.10;;
52106;SDS011;38105;52.968;5.974;2022-09-09T14:24:13;6.95;;;1.05;;
52106;SDS011;38105;52.968;5.974;2022-09-09T14:26:39;5.30;;;1.00;;
52106;SDS011;38105;52.968;5.974;2022-09-09T14:29:05;5.00;;;0.90;;
52106;SDS011;38105;52.968;5.974;2022-09-09T14:31:31;6.07;;;1.08;;
52106;SDS011;38105;52.968;5.974;2022-09-09T14:33:57;4.60;;;0.93;;
52106;SDS011;38105;52.968;5.974;2022-09-09T14:36:23;7.75;;;1.08;;
52106;SDS011;38105;52.968;5.974;2022-09-09T14:38:49;5.85;;;1.30;;
52106;SDS011;38105;52.968;5.974;2022-09-09T14:41:17;2.97;;;0.80;;
52106;SDS011;38105;52.968;5.974;2022-09-09T14:43:44;3.80;;;0.60;;
52106;SDS011;38105;52.968;5.974;2022-09-09T14:46:14;3.90;;;0.75;;
52106;SDS011;38105;52.968;5.974;2022-09-09T14:48:41;3.65;;;1.02;;
52106;SDS011;38105;52.968;5.974;2022-09-09T14:51:10;5.22;;;1.08;;
52106;SDS011;38105;52.968;5.974;2022-09-09T14:53:38;3.55;;;1.10;;
52106;SDS011;38105;52.968;5.974;2022-09-09T14:56:08;3.42;;;0.88;;
52106;SDS011;38105;52.968;5.974;2022-09-09T14:58:36;4.60;;;1.30;;
52106;SDS011;38105;52.968;5.974;2022-09-09T15:01:10;3.15;;;1.35;;
52106;SDS011;38105;52.968;5.974;2022-09-09T15:03:37;7.00;;;1.67;;
52106;SDS011;38105;52.968;5.974;2022-09-09T15:08:34;3.22;;;1.55;;
52106;SDS011;38105;52.968;5.974;2022-09-09T15:11:01;3.63;;;1.30;;
52106;SDS011;38105;52.968;5.974;2022-09-09T15:13:29;5.18;;;1.27;;
52106;SDS011;38105;52.968;5.974;2022-09-09T15:15:54;5.63;;;1.67;;
52106;SDS011;38105;52.968;5.974;2022-09-09T15:18:20;5.47;;;1.70;;
52106;SDS011;38105;52.968;5.974;2022-09-09T15:20:46;4.68;;;1.63;;
52106;SDS011;38105;52.968;5.974;2022-09-09T15:23:12;6.40;;;1.70;;
52106;SDS011;38105;52.968;5.974;2022-09-09T15:25:39;5.75;;;1.65;;
52106;SDS011;38105;52.968;5.974;2022-09-09T15:28:15;5.28;;;1.80;;
52106;SDS011;38105;52.968;5.974;2022-09-09T15:30:41;6.45;;;2.13;;
52106;SDS011;38105;52.968;5.974;2022-09-09T15:33:08;7.22;;;2.42;;
52106;SDS011;38105;52.968;5.974;2022-09-09T15:35:33;4.70;;;1.90;;
52106;SDS011;38105;52.968;5.974;2022-09-09T15:38:01;5.35;;;2.00;;
52106;SDS011;38105;52.968;5.974;2022-09-09T15:40:30;7.43;;;2.13;;
52106;SDS011;38105;52.968;5.974;2022-09-09T15:42:57;10.35;;;3.00;;
52106;SDS011;38105;52.968;5.974;2022-09-09T15:45:23;5.03;;;1.88;;
52106;SDS011;38105;52.968;5.974;2022-09-09T15:47:49;5.93;;;1.80;;
52106;SDS011;38105;52.968;5.974;2022-09-09T15:50:15;6.70;;;1.85;;
52106;SDS011;38105;52.968;5.974;2022-09-09T15:52:40;6.55;;;2.20;;
52106;SDS011;38105;52.968;5.974;2022-09-09T15:55:06;5.10;;;1.60;;
52106;SDS011;38105;52.968;5.974;2022-09-09T15:57:33;3.85;;;1.60;;
52106;SDS011;38105;52.968;5.974;2022-09-09T16:00:00;7.07;;;1.52;;
52106;SDS011;38105;52.968;5.974;2022-09-09T16:02:31;6.50;;;1.90;;
52106;SDS011;38105;52.968;5.974;2022-09-09T16:04:56;6.82;;;1.77;;
52106;SDS011;38105;52.968;5.974;2022-09-09T16:07:22;6.78;;;1.50;;
52106;SDS011;38105;52.968;5.974;2022-09-09T16:09:48;6.55;;;1.75;;
52106;SDS011;38105;52.968;5.974;2022-09-09T16:12:16;7.38;;;2.22;;
52106;SDS011;38105;52.968;5.974;2022-09-09T16:14:42;5.80;;;1.80;;
52106;SDS011;38105;52.968;5.974;2022-09-09T16:17:08;5.88;;;1.83;;
52106;SDS011;38105;52.968;5.974;2022-09-09T16:19:34;6.90;;;1.90;;
52106;SDS011;38105;52.968;5.974;2022-09-09T16:22:00;5.07;;;2.10;;
52106;SDS011;38105;52.968;5.974;2022-09-09T16:24:26;5.47;;;1.80;;
52106;SDS011;38105;52.968;5.974;2022-09-09T16:26:52;6.13;;;1.85;;
52106;SDS011;38105;52.968;5.974;2022-09-09T16:29:20;6.00;;;1.80;;
52106;SDS011;38105;52.968;5.974;2022-09-09T16:31:47;4.35;;;1.60;;
52106;SDS011;38105;52.968;5.974;2022-09-09T16:34:14;5.13;;;1.63;;
52106;SDS011;38105;52.968;5.974;2022-09-09T16:36:42;8.48;;;2.20;;
52106;SDS011;38105;52.968;5.974;2022-09-09T16:39:12;5.32;;;1.85;;
52106;SDS011;38105;52.968;5.974;2022-09-09T16:41:43;5.97;;;2.40;;
52106;SDS011;38105;52.968;5.974;2022-09-09T16:44:11;5.15;;;1.73;;
52106;SDS011;38105;52.968;5.974;2022-09-09T16:46:39;4.88;;;1.67;;
52106;SDS011;38105;52.968;5.974;2022-09-09T16:49:07;5.40;;;2.00;;
52106;SDS011;38105;52.968;5.974;2022-09-09T16:51:39;7.55;;;2.22;;
52106;SDS011;38105;52.968;5.974;2022-09-09T16:54:07;4.80;;;1.85;;
52106;SDS011;38105;52.968;5.974;2022-09-09T16:56:34;11.13;;;2.40;;
52106;SDS011;38105;52.968;5.974;2022-09-09T16:59:03;6.80;;;2.00;;
52106;SDS011;38105;52.968;5.974;2022-09-09T17:01:32;5.88;;;2.08;;
52106;SDS011;38105;52.968;5.974;2022-09-09T17:04:02;8.75;;;2.00;;
52106;SDS011;38105;52.968;5.974;2022-09-09T17:06:30;4.72;;;2.00;;
52106;SDS011;38105;52.968;5.974;2022-09-09T17:09:00;5.10;;;1.95;;
52106;SDS011;38105;52.968;5.974;2022-09-09T17:11:28;6.45;;;1.40;;
52106;SDS011;38105;52.968;5.974;2022-09-09T17:13:54;5.85;;;1.70;;